sensor_id;sensor_type;location;lat;lon;timestamp;P1;durP1;ratioP1;P2;durP2;ratioP2
55435;SDS011;41307;53.142;6.430;2023-07-16T00:00:30;2.33;;;0.75;;
55435;SDS011;41307;53.142;6.430;2023-07-16T00:02:56;1.65;;;0.57;;
55435;SDS011;41307;53.142;6.430;2023-07-16T00:05:21;3.22;;;0.70;;
55435;SDS011;41307;53.142;6.430;2023-07-16T00:07:47;1.67;;;0.55;;
55435;SDS011;41307;53.142;6.430;2023-07-16T00:10:13;2.35;;;0.73;;
55435;SDS011;41307;53.142;6.430;2023-07-16T00:12:39;3.58;;;0.85;;
55435;SDS011;41307;53.142;6.430;2023-07-16T00:15:05;1.90;;;0.50;;
55435;SDS011;41307;53.142;6.430;2023-07-16T00:17:31;3.47;;;0.82;;
55435;SDS011;41307;53.142;6.430;2023-07-16T00:19:58;4.45;;;1.00;;
55435;SDS011;41307;53.142;6.430;2023-07-16T00:22:23;3.92;;;0.70;;
55435;SDS011;41307;53.142;6.430;2023-07-16T00:24:49;3.53;;;0.90;;
55435;SDS011;41307;53.142;6.430;2023-07-16T00:27:15;1.70;;;0.68;;
55435;SDS011;41307;53.142;6.430;2023-07-16T00:29:41;0.55;;;0.43;;
55435;SDS011;41307;53.142;6.430;2023-07-16T00:32:06;1.10;;;0.47;;
55435;SDS011;41307;53.142;6.430;2023-07-16T00:34:32;3.67;;;0.98;;
55435;SDS011;41307;53.142;6.430;2023-07-16T00:36:58;1.15;;;0.60;;
55435;SDS011;41307;53.142;6.430;2023-07-16T00:39:29;2.15;;;0.95;;
55435;SDS011;41307;53.142;6.430;2023-07-16T00:41:55;1.33;;;0.80;;
55435;SDS011;41307;53.142;6.430;2023-07-16T00:44:21;4.47;;;1.20;;
55435;SDS011;41307;53.142;6.430;2023-07-16T00:46:48;1.52;;;0.65;;
55435;SDS011;41307;53.142;6.430;2023-07-16T00:49:14;1.02;;;0.50;;
55435;SDS011;41307;53.142;6.430;2023-07-16T00:51:40;2.35;;;0.80;;
55435;SDS011;41307;53.142;6.430;2023-07-16T00:54:07;1.52;;;0.70;;
55435;SDS011;41307;53.142;6.430;2023-07-16T00:56:33;1.13;;;0.55;;
55435;SDS011;41307;53.142;6.430;2023-07-16T00:59:00;1.42;;;0.60;;
55435;SDS011;41307;53.142;6.430;2023-07-16T01:01:25;1.02;;;0.47;;
55435;SDS011;41307;53.142;6.430;2023-07-16T01:03:51;2.70;;;0.68;;
55435;SDS011;41307;53.142;6.430;2023-07-16T01:06:36;3.78;;;1.00;;
55435;SDS011;41307;53.142;6.430;2023-07-16T01:09:10;2.40;;;0.70;;
55435;SDS011;41307;53.142;6.430;2023-07-16T01:11:40;2.38;;;1.00;;
55435;SDS011;41307;53.142;6.430;2023-07-16T01:14:08;4.10;;;0.88;;
55435;SDS011;41307;53.142;6.430;2023-07-16T01:16:35;1.83;;;0.60;;
55435;SDS011;41307;53.142;6.430;2023-07-16T01:19:01;3.53;;;1.17;;
55435;SDS011;41307;53.142;6.430;2023-07-16T01:21:29;3.95;;;0.95;;
55435;SDS011;41307;53.142;6.430;2023-07-16T01:29:35;4.10;;;0.90;;
55435;SDS011;41307;53.142;6.430;2023-07-16T01:32:05;3.22;;;0.90;;
55435;SDS011;41307;53.142;6.430;2023-07-16T01:34:33;2.08;;;0.60;;
55435;SDS011;41307;53.142;6.430;2023-07-16T01:37:01;4.07;;;0.70;;
55435;SDS011;41307;53.142;6.430;2023-07-16T01:39:28;2.28;;;0.55;;
55435;SDS011;41307;53.142;6.430;2023-07-16T01:41:55;3.08;;;0.93;;
55435;SDS011;41307;53.142;6.430;2023-07-16T01:44:21;1.77;;;0.70;;
55435;SDS011;41307;53.142;6.430;2023-07-16T01:46:49;3.40;;;0.80;;
55435;SDS011;41307;53.142;6.430;2023-07-16T01:49:27;3.47;;;0.60;;
55435;SDS011;41307;53.142;6.430;2023-07-16T01:51:53;2.58;;;0.70;;
55435;SDS011;41307;53.142;6.430;2023-07-16T01:54:19;3.97;;;0.90;;
55435;SDS011;41307;53.142;6.430;2023-07-16T01:56:45;1.67;;;0.50;;
55435;SDS011;41307;53.142;6.430;2023-07-16T01:59:11;3.75;;;0.80;;
55435;SDS011;41307;53.142;6.430;2023-07-16T02:01:37;5.45;;;0.75;;
55435;SDS011;41307;53.142;6.430;2023-07-16T02:04:03;3.67;;;0.70;;
55435;SDS011;41307;53.142;6.430;2023-07-16T02:06:29;1.55;;;0.63;;
55435;SDS011;41307;53.142;6.430;2023-07-16T02:08:54;2.03;;;0.70;;
55435;SDS011;41307;53.142;6.430;2023-07-16T02:11:20;1.88;;;0.85;;
55435;SDS011;41307;53.142;6.430;2023-07-16T02:13:46;2.35;;;0.82;;
55435;SDS011;41307;53.142;6.430;2023-07-16T02:16:12;1.83;;;0.60;;
55435;SDS011;41307;53.142;6.430;2023-07-16T02:18:38;2.42;;;0.65;;
55435;SDS011;41307;53.142;6.430;2023-07-16T02:21:04;2.17;;;0.63;;
55435;SDS011;41307;53.142;6.430;2023-07-16T02:23:30;2.03;;;0.73;;
55435;SDS011;41307;53.142;6.430;2023-07-16T02:25:56;2.88;;;0.80;;
55435;SDS011;41307;53.142;6.430;2023-07-16T02:28:21;2.55;;;0.82;;
55435;SDS011;41307;53.142;6.430;2023-07-16T02:30:48;2.58;;;0.90;;
55435;SDS011;41307;53.142;6.430;2023-07-16T02:33:15;4.15;;;1.13;;
55435;SDS011;41307;53.142;6.430;2023-07-16T02:35:45;4.13;;;1.00;;
55435;SDS011;41307;53.142;6.430;2023-07-16T02:38:12;2.83;;;1.05;;
55435;SDS011;41307;53.142;6.430;2023-07-16T02:40:42;1.65;;;0.75;;
55435;SDS011;41307;53.142;6.430;2023-07-16T02:43:09;3.13;;;1.17;;
55435;SDS011;41307;53.142;6.430;2023-07-16T02:45:34;6.50;;;1.02;;
55435;SDS011;41307;53.142;6.430;2023-07-16T02:48:00;4.10;;;1.10;;
55435;SDS011;41307;53.142;6.430;2023-07-16T02:50:26;3.13;;;0.73;;
55435;SDS011;41307;53.142;6.430;2023-07-16T02:52:52;3.42;;;1.58;;
55435;SDS011;41307;53.142;6.430;2023-07-16T02:55:18;4.90;;;1.27;;
55435;SDS011;41307;53.142;6.430;2023-07-16T02:57:43;4.53;;;1.40;;
55435;SDS011;41307;53.142;6.430;2023-07-16T03:00:09;2.95;;;0.98;;
55435;SDS011;41307;53.142;6.430;2023-07-16T03:02:35;3.40;;;1.05;;
55435;SDS011;41307;53.142;6.430;2023-07-16T03:05:01;2.45;;;1.02;;
55435;SDS011;41307;53.142;6.430;2023-07-16T03:07:28;2.67;;;0.93;;
55435;SDS011;41307;53.142;6.430;2023-07-16T03:09:54;3.97;;;1.23;;
55435;SDS011;41307;53.142;6.430;2023-07-16T03:12:20;2.63;;;1.15;;
55435;SDS011;41307;53.142;6.430;2023-07-16T03:14:45;2.88;;;1.08;;
55435;SDS011;41307;53.142;6.430;2023-07-16T03:17:12;4.03;;;1.20;;
55435;SDS011;41307;53.142;6.430;2023-07-16T03:19:37;2.78;;;1.10;;
55435;SDS011;41307;53.142;6.430;2023-07-16T03:22:03;2.25;;;1.13;;
55435;SDS011;41307;53.142;6.430;2023-07-16T03:24:29;5.32;;;1.60;;
55435;SDS011;41307;53.142;6.430;2023-07-16T03:26:55;4.55;;;1.20;;
55435;SDS011;41307;53.142;6.430;2023-07-16T03:29:20;5.45;;;1.40;;
55435;SDS011;41307;53.142;6.430;2023-07-16T03:31:46;3.83;;;1.30;;
55435;SDS011;41307;53.142;6.430;2023-07-16T03:34:12;3.03;;;1.35;;
55435;SDS011;41307;53.142;6.430;2023-07-16T03:36:37;3.47;;;1.33;;
55435;SDS011;41307;53.142;6.430;2023-07-16T03:39:03;2.15;;;1.20;;
55435;SDS011;41307;53.142;6.430;2023-07-16T03:41:29;2.60;;;1.45;;
55435;SDS011;41307;53.142;6.430;2023-07-16T03:43:54;2.83;;;1.27;;
55435;SDS011;41307;53.142;6.430;2023-07-16T03:46:20;2.45;;;1.25;;
55435;SDS011;41307;53.142;6.430;2023-07-16T03:48:46;2.85;;;1.30;;
55435;SDS011;41307;53.142;6.430;2023-07-16T03:51:12;4.68;;;1.95;;
55435;SDS011;41307;53.142;6.430;2023-07-16T03:53:37;2.00;;;0.88;;
55435;SDS011;41307;53.142;6.430;2023-07-16T03:56:03;2.33;;;1.10;;
55435;SDS011;41307;53.142;6.430;2023-07-16T03:58:29;6.40;;;1.45;;
55435;SDS011;41307;53.142;6.430;2023-07-16T04:00:55;3.63;;;1.10;;
55435;SDS011;41307;53.142;6.430;2023-07-16T04:03:21;4.75;;;1.52;;
55435;SDS011;41307;53.142;6.430;2023-07-16T04:05:46;3.55;;;1.55;;
55435;SDS011;41307;53.142;6.430;2023-07-16T04:08:12;3.63;;;1.30;;
55435;SDS011;41307;53.142;6.430;2023-07-16T04:10:38;6.72;;;1.50;;
55435;SDS011;41307;53.142;6.430;2023-07-16T04:13:04;3.75;;;1.40;;
55435;SDS011;41307;53.142;6.430;2023-07-16T04:15:29;4.78;;;1.65;;
55435;SDS011;41307;53.142;6.430;2023-07-16T04:17:55;5.10;;;1.30;;
55435;SDS011;41307;53.142;6.430;2023-07-16T04:20:21;5.43;;;1.70;;
55435;SDS011;41307;53.142;6.430;2023-07-16T04:22:46;5.10;;;1.60;;
55435;SDS011;41307;53.142;6.430;2023-07-16T04:25:12;2.30;;;1.05;;
55435;SDS011;41307;53.142;6.430;2023-07-16T04:27:39;4.40;;;1.77;;
55435;SDS011;41307;53.142;6.430;2023-07-16T04:30:06;3.47;;;1.52;;
55435;SDS011;41307;53.142;6.430;2023-07-16T04:32:33;3.80;;;1.67;;
55435;SDS011;41307;53.142;6.430;2023-07-16T04:34:58;3.13;;;1.33;;
55435;SDS011;41307;53.142;6.430;2023-07-16T04:37:24;2.83;;;1.35;;
55435;SDS011;41307;53.142;6.430;2023-07-16T04:39:50;3.75;;;1.40;;
55435;SDS011;41307;53.142;6.430;2023-07-16T04:42:15;4.30;;;1.52;;
55435;SDS011;41307;53.142;6.430;2023-07-16T04:44:42;4.63;;;1.60;;
55435;SDS011;41307;53.142;6.430;2023-07-16T04:47:07;2.92;;;1.25;;
55435;SDS011;41307;53.142;6.430;2023-07-16T04:49:34;4.18;;;1.67;;
55435;SDS011;41307;53.142;6.430;2023-07-16T04:52:01;3.92;;;1.80;;
55435;SDS011;41307;53.142;6.430;2023-07-16T04:54:27;3.75;;;1.27;;
55435;SDS011;41307;53.142;6.430;2023-07-16T04:56:52;3.22;;;1.40;;
55435;SDS011;41307;53.142;6.430;2023-07-16T04:59:18;3.15;;;1.50;;
55435;SDS011;41307;53.142;6.430;2023-07-16T05:01:44;2.80;;;1.10;;
55435;SDS011;41307;53.142;6.430;2023-07-16T05:04:10;2.83;;;1.45;;
55435;SDS011;41307;53.142;6.430;2023-07-16T05:06:35;3.00;;;1.30;;
55435;SDS011;41307;53.142;6.430;2023-07-16T05:09:01;3.25;;;1.80;;
55435;SDS011;41307;53.142;6.430;2023-07-16T05:11:27;2.53;;;1.20;;
55435;SDS011;41307;53.142;6.430;2023-07-16T05:13:53;3.55;;;1.75;;
55435;SDS011;41307;53.142;6.430;2023-07-16T05:16:18;3.45;;;1.20;;
55435;SDS011;41307;53.142;6.430;2023-07-16T05:18:44;4.43;;;1.65;;
55435;SDS011;41307;53.142;6.430;2023-07-16T05:21:10;3.70;;;1.38;;
55435;SDS011;41307;53.142;6.430;2023-07-16T05:23:36;4.28;;;1.42;;
55435;SDS011;41307;53.142;6.430;2023-07-16T05:26:01;2.60;;;1.20;;
55435;SDS011;41307;53.142;6.430;2023-07-16T05:28:27;4.32;;;1.45;;
55435;SDS011;41307;53.142;6.430;2023-07-16T05:31:00;2.75;;;1.40;;
55435;SDS011;41307;53.142;6.430;2023-07-16T05:33:26;2.15;;;1.02;;
55435;SDS011;41307;53.142;6.430;2023-07-16T05:35:52;2.92;;;1.00;;
55435;SDS011;41307;53.142;6.430;2023-07-16T05:38:17;3.53;;;1.20;;
55435;SDS011;41307;53.142;6.430;2023-07-16T05:40:43;2.78;;;1.10;;
55435;SDS011;41307;53.142;6.430;2023-07-16T05:43:09;2.67;;;1.20;;
55435;SDS011;41307;53.142;6.430;2023-07-16T05:45:35;3.90;;;1.08;;
55435;SDS011;41307;53.142;6.430;2023-07-16T05:48:01;3.08;;;0.95;;
55435;SDS011;41307;53.142;6.430;2023-07-16T05:50:27;2.33;;;0.90;;
55435;SDS011;41307;53.142;6.430;2023-07-16T05:52:52;3.47;;;1.27;;
55435;SDS011;41307;53.142;6.430;2023-07-16T05:55:18;2.67;;;1.23;;
55435;SDS011;41307;53.142;6.430;2023-07-16T05:57:44;5.05;;;1.25;;
55435;SDS011;41307;53.142;6.430;2023-07-16T06:00:10;2.25;;;0.98;;
55435;SDS011;41307;53.142;6.430;2023-07-16T06:02:36;2.97;;;0.90;;
55435;SDS011;41307;53.142;6.430;2023-07-16T06:05:02;4.75;;;0.98;;
55435;SDS011;41307;53.142;6.430;2023-07-16T06:07:28;3.88;;;1.23;;
55435;SDS011;41307;53.142;6.430;2023-07-16T06:09:53;3.38;;;1.40;;
55435;SDS011;41307;53.142;6.430;2023-07-16T06:12:19;2.33;;;0.90;;
55435;SDS011;41307;53.142;6.430;2023-07-16T06:14:45;3.13;;;1.08;;
55435;SDS011;41307;53.142;6.430;2023-07-16T06:17:11;3.38;;;1.02;;
55435;SDS011;41307;53.142;6.430;2023-07-16T06:19:36;2.60;;;1.40;;
55435;SDS011;41307;53.142;6.430;2023-07-16T06:22:02;3.08;;;1.40;;
55435;SDS011;41307;53.142;6.430;2023-07-16T06:24:28;2.30;;;1.00;;
55435;SDS011;41307;53.142;6.430;2023-07-16T06:26:54;2.78;;;1.00;;
55435;SDS011;41307;53.142;6.430;2023-07-16T06:29:19;3.60;;;1.30;;
55435;SDS011;41307;53.142;6.430;2023-07-16T06:31:54;3.58;;;1.30;;
55435;SDS011;41307;53.142;6.430;2023-07-16T06:34:23;3.85;;;1.45;;
55435;SDS011;41307;53.142;6.430;2023-07-16T06:36:52;2.63;;;1.35;;
55435;SDS011;41307;53.142;6.430;2023-07-16T06:39:18;4.05;;;1.60;;
55435;SDS011;41307;53.142;6.430;2023-07-16T06:41:43;3.17;;;1.13;;
55435;SDS011;41307;53.142;6.430;2023-07-16T06:44:09;3.80;;;1.15;;
55435;SDS011;41307;53.142;6.430;2023-07-16T06:46:35;3.03;;;1.13;;
55435;SDS011;41307;53.142;6.430;2023-07-16T06:49:01;4.53;;;1.50;;
55435;SDS011;41307;53.142;6.430;2023-07-16T06:51:26;3.65;;;1.88;;
55435;SDS011;41307;53.142;6.430;2023-07-16T06:53:54;3.30;;;1.42;;
55435;SDS011;41307;53.142;6.430;2023-07-16T06:56:20;3.03;;;1.27;;
55435;SDS011;41307;53.142;6.430;2023-07-16T06:58:46;5.43;;;1.50;;
55435;SDS011;41307;53.142;6.430;2023-07-16T07:01:11;3.03;;;1.20;;
55435;SDS011;41307;53.142;6.430;2023-07-16T07:03:37;3.05;;;1.00;;
55435;SDS011;41307;53.142;6.430;2023-07-16T07:06:03;3.78;;;0.98;;
55435;SDS011;41307;53.142;6.430;2023-07-16T07:08:29;4.38;;;1.50;;
55435;SDS011;41307;53.142;6.430;2023-07-16T07:10:55;2.22;;;1.15;;
55435;SDS011;41307;53.142;6.430;2023-07-16T07:13:22;2.03;;;1.23;;
55435;SDS011;41307;53.142;6.430;2023-07-16T07:15:49;4.63;;;1.50;;
55435;SDS011;41307;53.142;6.430;2023-07-16T07:18:14;2.95;;;1.30;;
55435;SDS011;41307;53.142;6.430;2023-07-16T07:20:40;2.67;;;1.20;;
55435;SDS011;41307;53.142;6.430;2023-07-16T07:23:06;4.00;;;1.13;;
55435;SDS011;41307;53.142;6.430;2023-07-16T07:25:32;2.80;;;1.17;;
55435;SDS011;41307;53.142;6.430;2023-07-16T07:27:58;3.05;;;1.60;;
55435;SDS011;41307;53.142;6.430;2023-07-16T07:30:24;3.80;;;1.23;;
55435;SDS011;41307;53.142;6.430;2023-07-16T07:32:50;3.75;;;1.17;;
55435;SDS011;41307;53.142;6.430;2023-07-16T07:35:16;7.18;;;1.70;;
55435;SDS011;41307;53.142;6.430;2023-07-16T07:37:42;2.08;;;1.20;;
55435;SDS011;41307;53.142;6.430;2023-07-16T07:40:08;4.07;;;1.40;;
55435;SDS011;41307;53.142;6.430;2023-07-16T07:42:34;3.30;;;1.27;;
55435;SDS011;41307;53.142;6.430;2023-07-16T07:44:59;4.97;;;1.58;;
55435;SDS011;41307;53.142;6.430;2023-07-16T07:47:25;3.08;;;1.52;;
55435;SDS011;41307;53.142;6.430;2023-07-16T07:49:52;3.75;;;1.15;;
55435;SDS011;41307;53.142;6.430;2023-07-16T07:52:18;3.00;;;1.30;;
55435;SDS011;41307;53.142;6.430;2023-07-16T07:54:43;3.72;;;1.45;;
55435;SDS011;41307;53.142;6.430;2023-07-16T07:57:09;2.65;;;1.45;;
55435;SDS011;41307;53.142;6.430;2023-07-16T07:59:35;2.13;;;1.17;;
55435;SDS011;41307;53.142;6.430;2023-07-16T08:02:01;3.45;;;1.20;;
55435;SDS011;41307;53.142;6.430;2023-07-16T08:04:27;2.75;;;1.20;;
55435;SDS011;41307;53.142;6.430;2023-07-16T08:06:53;5.43;;;1.60;;
55435;SDS011;41307;53.142;6.430;2023-07-16T08:09:19;4.10;;;1.50;;
55435;SDS011;41307;53.142;6.430;2023-07-16T08:11:45;3.53;;;1.05;;
55435;SDS011;41307;53.142;6.430;2023-07-16T08:14:11;2.17;;;1.25;;
55435;SDS011;41307;53.142;6.430;2023-07-16T08:16:37;2.60;;;1.55;;
55435;SDS011;41307;53.142;6.430;2023-07-16T08:19:02;3.03;;;1.20;;
55435;SDS011;41307;53.142;6.430;2023-07-16T08:21:28;6.50;;;1.40;;
55435;SDS011;41307;53.142;6.430;2023-07-16T08:23:54;2.58;;;1.23;;
55435;SDS011;41307;53.142;6.430;2023-07-16T08:26:20;4.00;;;1.02;;
55435;SDS011;41307;53.142;6.430;2023-07-16T08:28:45;3.67;;;1.40;;
55435;SDS011;41307;53.142;6.430;2023-07-16T08:31:11;4.05;;;1.52;;
55435;SDS011;41307;53.142;6.430;2023-07-16T08:33:38;4.05;;;1.65;;
55435;SDS011;41307;53.142;6.430;2023-07-16T08:36:04;2.95;;;1.50;;
55435;SDS011;41307;53.142;6.430;2023-07-16T08:38:29;3.88;;;1.42;;
55435;SDS011;41307;53.142;6.430;2023-07-16T08:40:55;3.05;;;1.48;;
55435;SDS011;41307;53.142;6.430;2023-07-16T08:43:21;4.18;;;1.40;;
55435;SDS011;41307;53.142;6.430;2023-07-16T08:45:48;4.00;;;1.35;;
55435;SDS011;41307;53.142;6.430;2023-07-16T08:48:15;4.43;;;1.60;;
55435;SDS011;41307;53.142;6.430;2023-07-16T08:50:48;4.28;;;1.70;;
55435;SDS011;41307;53.142;6.430;2023-07-16T08:53:18;2.72;;;1.17;;
55435;SDS011;41307;53.142;6.430;2023-07-16T08:55:44;3.53;;;1.50;;
55435;SDS011;41307;53.142;6.430;2023-07-16T08:58:11;4.43;;;1.77;;
55435;SDS011;41307;53.142;6.430;2023-07-16T09:00:42;4.10;;;1.48;;
55435;SDS011;41307;53.142;6.430;2023-07-16T09:03:11;5.85;;;1.20;;
55435;SDS011;41307;53.142;6.430;2023-07-16T09:05:44;5.75;;;1.50;;
55435;SDS011;41307;53.142;6.430;2023-07-16T09:08:10;2.58;;;1.08;;
55435;SDS011;41307;53.142;6.430;2023-07-16T09:10:35;3.38;;;1.23;;
55435;SDS011;41307;53.142;6.430;2023-07-16T09:13:01;1.98;;;1.00;;
55435;SDS011;41307;53.142;6.430;2023-07-16T09:15:28;2.30;;;1.30;;
55435;SDS011;41307;53.142;6.430;2023-07-16T09:17:55;2.85;;;1.38;;
55435;SDS011;41307;53.142;6.430;2023-07-16T09:20:21;2.72;;;1.15;;
55435;SDS011;41307;53.142;6.430;2023-07-16T09:22:50;3.35;;;1.55;;
55435;SDS011;41307;53.142;6.430;2023-07-16T09:25:20;3.40;;;1.40;;
55435;SDS011;41307;53.142;6.430;2023-07-16T09:28:03;3.53;;;1.15;;
55435;SDS011;41307;53.142;6.430;2023-07-16T09:30:33;2.58;;;1.10;;
55435;SDS011;41307;53.142;6.430;2023-07-16T09:33:08;4.18;;;1.50;;
55435;SDS011;41307;53.142;6.430;2023-07-16T09:35:49;2.30;;;1.23;;
55435;SDS011;41307;53.142;6.430;2023-07-16T09:38:16;2.75;;;1.27;;
55435;SDS011;41307;53.142;6.430;2023-07-16T09:40:43;3.55;;;1.50;;
55435;SDS011;41307;53.142;6.430;2023-07-16T09:43:10;2.35;;;1.15;;
55435;SDS011;41307;53.142;6.430;2023-07-16T09:45:37;4.43;;;1.38;;
55435;SDS011;41307;53.142;6.430;2023-07-16T09:48:03;3.35;;;1.27;;
55435;SDS011;41307;53.142;6.430;2023-07-16T09:50:31;2.75;;;1.15;;
55435;SDS011;41307;53.142;6.430;2023-07-16T09:52:59;2.35;;;1.33;;
55435;SDS011;41307;53.142;6.430;2023-07-16T09:55:25;2.53;;;1.23;;
55435;SDS011;41307;53.142;6.430;2023-07-16T09:57:53;5.43;;;1.30;;
55435;SDS011;41307;53.142;6.430;2023-07-16T10:00:22;3.95;;;1.25;;
55435;SDS011;41307;53.142;6.430;2023-07-16T10:02:49;2.42;;;1.35;;
55435;SDS011;41307;53.142;6.430;2023-07-16T10:05:23;2.55;;;1.20;;
55435;SDS011;41307;53.142;6.430;2023-07-16T10:07:51;2.85;;;1.13;;
55435;SDS011;41307;53.142;6.430;2023-07-16T10:10:20;1.85;;;1.00;;
55435;SDS011;41307;53.142;6.430;2023-07-16T10:13:01;1.83;;;1.10;;
55435;SDS011;41307;53.142;6.430;2023-07-16T10:15:28;2.70;;;1.23;;
55435;SDS011;41307;53.142;6.430;2023-07-16T10:17:55;2.08;;;1.60;;
55435;SDS011;41307;53.142;6.430;2023-07-16T10:20:31;2.80;;;1.40;;
55435;SDS011;41307;53.142;6.430;2023-07-16T10:23:14;3.22;;;1.50;;
55435;SDS011;41307;53.142;6.430;2023-07-16T10:26:03;3.97;;;1.60;;
55435;SDS011;41307;53.142;6.430;2023-07-16T10:28:31;2.70;;;1.30;;
55435;SDS011;41307;53.142;6.430;2023-07-16T10:30:58;3.58;;;1.40;;
55435;SDS011;41307;53.142;6.430;2023-07-16T10:33:23;2.17;;;1.00;;
55435;SDS011;41307;53.142;6.430;2023-07-16T10:35:49;3.78;;;1.50;;
55435;SDS011;41307;53.142;6.430;2023-07-16T10:38:15;2.65;;;1.40;;
55435;SDS011;41307;53.142;6.430;2023-07-16T10:40:41;4.07;;;1.25;;
55435;SDS011;41307;53.142;6.430;2023-07-16T10:43:08;3.10;;;1.30;;
55435;SDS011;41307;53.142;6.430;2023-07-16T10:45:34;3.22;;;1.00;;
55435;SDS011;41307;53.142;6.430;2023-07-16T10:48:00;2.60;;;1.00;;
55435;SDS011;41307;53.142;6.430;2023-07-16T10:50:25;3.03;;;1.50;;
55435;SDS011;41307;53.142;6.430;2023-07-16T10:52:52;2.80;;;1.30;;
55435;SDS011;41307;53.142;6.430;2023-07-16T10:55:19;3.08;;;1.27;;
55435;SDS011;41307;53.142;6.430;2023-07-16T10:57:48;2.78;;;1.45;;
55435;SDS011;41307;53.142;6.430;2023-07-16T11:00:15;2.22;;;1.38;;
55435;SDS011;41307;53.142;6.430;2023-07-16T11:02:42;2.17;;;1.10;;
55435;SDS011;41307;53.142;6.430;2023-07-16T11:05:12;3.15;;;1.27;;
55435;SDS011;41307;53.142;6.430;2023-07-16T11:07:42;1.73;;;1.10;;
55435;SDS011;41307;53.142;6.430;2023-07-16T11:10:09;3.10;;;1.35;;
55435;SDS011;41307;53.142;6.430;2023-07-16T11:12:35;5.50;;;1.20;;
55435;SDS011;41307;53.142;6.430;2023-07-16T11:15:01;2.22;;;1.15;;
55435;SDS011;41307;53.142;6.430;2023-07-16T11:17:27;2.75;;;1.00;;
55435;SDS011;41307;53.142;6.430;2023-07-16T11:19:53;2.30;;;1.30;;
55435;SDS011;41307;53.142;6.430;2023-07-16T11:22:20;3.35;;;1.02;;
55435;SDS011;41307;53.142;6.430;2023-07-16T11:24:50;1.88;;;1.05;;
55435;SDS011;41307;53.142;6.430;2023-07-16T11:27:20;2.08;;;0.90;;
55435;SDS011;41307;53.142;6.430;2023-07-16T11:29:54;3.17;;;1.55;;
55435;SDS011;41307;53.142;6.430;2023-07-16T11:32:37;2.67;;;1.00;;
55435;SDS011;41307;53.142;6.430;2023-07-16T11:35:07;2.55;;;1.25;;
55435;SDS011;41307;53.142;6.430;2023-07-16T11:37:34;3.85;;;1.30;;
55435;SDS011;41307;53.142;6.430;2023-07-16T11:40:02;2.08;;;1.13;;
55435;SDS011;41307;53.142;6.430;2023-07-16T11:42:33;3.90;;;1.35;;
55435;SDS011;41307;53.142;6.430;2023-07-16T11:45:01;1.77;;;1.13;;
55435;SDS011;41307;53.142;6.430;2023-07-16T11:47:27;1.85;;;1.10;;
55435;SDS011;41307;53.142;6.430;2023-07-16T11:49:54;2.90;;;1.05;;
55435;SDS011;41307;53.142;6.430;2023-07-16T11:52:20;3.45;;;1.15;;
55435;SDS011;41307;53.142;6.430;2023-07-16T11:54:48;3.42;;;1.35;;
55435;SDS011;41307;53.142;6.430;2023-07-16T11:57:15;2.47;;;1.40;;
55435;SDS011;41307;53.142;6.430;2023-07-16T11:59:41;2.47;;;1.30;;
55435;SDS011;41307;53.142;6.430;2023-07-16T12:02:06;3.58;;;1.50;;
55435;SDS011;41307;53.142;6.430;2023-07-16T12:04:33;2.60;;;1.27;;
55435;SDS011;41307;53.142;6.430;2023-07-16T12:06:58;3.03;;;1.40;;
55435;SDS011;41307;53.142;6.430;2023-07-16T12:09:24;4.10;;;1.70;;
55435;SDS011;41307;53.142;6.430;2023-07-16T12:11:50;2.65;;;1.48;;
55435;SDS011;41307;53.142;6.430;2023-07-16T12:14:16;3.20;;;1.33;;
55435;SDS011;41307;53.142;6.430;2023-07-16T12:16:41;3.95;;;1.50;;
55435;SDS011;41307;53.142;6.430;2023-07-16T12:19:08;6.07;;;1.90;;
55435;SDS011;41307;53.142;6.430;2023-07-16T12:21:34;3.05;;;1.45;;
55435;SDS011;41307;53.142;6.430;2023-07-16T12:24:00;3.22;;;1.45;;
55435;SDS011;41307;53.142;6.430;2023-07-16T12:26:25;4.88;;;1.75;;
55435;SDS011;41307;53.142;6.430;2023-07-16T12:28:55;5.03;;;1.63;;
55435;SDS011;41307;53.142;6.430;2023-07-16T12:31:21;5.43;;;1.65;;
55435;SDS011;41307;53.142;6.430;2023-07-16T12:33:47;2.35;;;1.20;;
55435;SDS011;41307;53.142;6.430;2023-07-16T12:36:13;3.20;;;1.77;;
55435;SDS011;41307;53.142;6.430;2023-07-16T12:38:39;3.95;;;1.42;;
55435;SDS011;41307;53.142;6.430;2023-07-16T12:41:05;3.63;;;1.40;;
55435;SDS011;41307;53.142;6.430;2023-07-16T12:43:31;4.20;;;1.42;;
55435;SDS011;41307;53.142;6.430;2023-07-16T12:46:02;5.35;;;1.73;;
55435;SDS011;41307;53.142;6.430;2023-07-16T12:48:29;3.63;;;1.63;;
55435;SDS011;41307;53.142;6.430;2023-07-16T12:50:55;5.00;;;1.25;;
55435;SDS011;41307;53.142;6.430;2023-07-16T12:53:22;3.45;;;1.40;;
55435;SDS011;41307;53.142;6.430;2023-07-16T12:55:48;4.13;;;1.40;;
55435;SDS011;41307;53.142;6.430;2023-07-16T12:58:14;4.25;;;1.63;;
55435;SDS011;41307;53.142;6.430;2023-07-16T13:00:40;4.32;;;1.45;;
55435;SDS011;41307;53.142;6.430;2023-07-16T13:03:05;2.63;;;1.30;;
55435;SDS011;41307;53.142;6.430;2023-07-16T13:05:35;4.32;;;1.55;;
55435;SDS011;41307;53.142;6.430;2023-07-16T13:08:00;1.98;;;0.88;;
55435;SDS011;41307;53.142;6.430;2023-07-16T13:10:26;2.92;;;1.30;;
55435;SDS011;41307;53.142;6.430;2023-07-16T13:12:52;3.45;;;1.08;;
55435;SDS011;41307;53.142;6.430;2023-07-16T13:15:18;2.33;;;1.10;;
55435;SDS011;41307;53.142;6.430;2023-07-16T13:17:43;2.85;;;1.08;;
55435;SDS011;41307;53.142;6.430;2023-07-16T13:20:09;3.97;;;1.23;;
55435;SDS011;41307;53.142;6.430;2023-07-16T13:22:36;3.50;;;1.08;;
55435;SDS011;41307;53.142;6.430;2023-07-16T13:25:02;1.63;;;0.88;;
55435;SDS011;41307;53.142;6.430;2023-07-16T13:27:28;2.88;;;0.95;;
55435;SDS011;41307;53.142;6.430;2023-07-16T13:29:54;2.88;;;0.75;;
55435;SDS011;41307;53.142;6.430;2023-07-16T13:32:19;1.27;;;0.40;;
55435;SDS011;41307;53.142;6.430;2023-07-16T13:34:45;1.63;;;0.82;;
55435;SDS011;41307;53.142;6.430;2023-07-16T13:37:11;2.20;;;0.65;;
55435;SDS011;41307;53.142;6.430;2023-07-16T13:39:36;2.78;;;0.60;;
55435;SDS011;41307;53.142;6.430;2023-07-16T13:42:02;2.78;;;0.75;;
55435;SDS011;41307;53.142;6.430;2023-07-16T13:44:28;2.78;;;0.55;;
55435;SDS011;41307;53.142;6.430;2023-07-16T13:46:54;1.77;;;0.40;;
55435;SDS011;41307;53.142;6.430;2023-07-16T13:49:19;1.65;;;0.60;;
55435;SDS011;41307;53.142;6.430;2023-07-16T13:51:45;1.50;;;0.50;;
55435;SDS011;41307;53.142;6.430;2023-07-16T13:54:11;2.33;;;0.60;;
55435;SDS011;41307;53.142;6.430;2023-07-16T13:56:37;3.30;;;0.70;;
55435;SDS011;41307;53.142;6.430;2023-07-16T13:59:03;2.88;;;0.60;;
55435;SDS011;41307;53.142;6.430;2023-07-16T14:01:29;0.98;;;0.60;;
55435;SDS011;41307;53.142;6.430;2023-07-16T14:03:55;2.35;;;0.50;;
55435;SDS011;41307;53.142;6.430;2023-07-16T14:06:21;1.80;;;0.47;;
55435;SDS011;41307;53.142;6.430;2023-07-16T14:08:46;2.85;;;0.70;;
55435;SDS011;41307;53.142;6.430;2023-07-16T14:11:12;3.10;;;0.50;;
55435;SDS011;41307;53.142;6.430;2023-07-16T14:13:38;1.13;;;0.30;;
55435;SDS011;41307;53.142;6.430;2023-07-16T14:16:04;1.83;;;0.30;;
55435;SDS011;41307;53.142;6.430;2023-07-16T14:18:30;1.52;;;0.50;;
55435;SDS011;41307;53.142;6.430;2023-07-16T14:20:56;1.10;;;0.40;;
55435;SDS011;41307;53.142;6.430;2023-07-16T14:23:22;1.13;;;0.38;;
55435;SDS011;41307;53.142;6.430;2023-07-16T14:25:47;2.25;;;0.38;;
55435;SDS011;41307;53.142;6.430;2023-07-16T14:28:13;2.08;;;0.40;;
55435;SDS011;41307;53.142;6.430;2023-07-16T14:30:39;1.98;;;0.30;;
55435;SDS011;41307;53.142;6.430;2023-07-16T14:33:05;3.00;;;0.40;;
55435;SDS011;41307;53.142;6.430;2023-07-16T14:35:32;2.80;;;0.50;;
55435;SDS011;41307;53.142;6.430;2023-07-16T14:37:59;2.45;;;0.35;;
55435;SDS011;41307;53.142;6.430;2023-07-16T14:40:24;2.25;;;0.50;;
55435;SDS011;41307;53.142;6.430;2023-07-16T14:42:51;3.33;;;0.40;;
55435;SDS011;41307;53.142;6.430;2023-07-16T14:45:17;1.02;;;0.40;;
55435;SDS011;41307;53.142;6.430;2023-07-16T14:47:43;3.42;;;0.25;;
55435;SDS011;41307;53.142;6.430;2023-07-16T14:50:09;2.58;;;0.40;;